Time;durP1;ratioP1;P1;durP2;ratioP2;P2;SDS_P1;SDS_P2;PMS_P1;PMS_P2;Temp;Humidity;BMP_temperature;BMP_pressure;BME280_temperature;BME280_humidity;BME280_pressure;Samples;Min_cycle;Max_cycle;Signal;HPM_P1;HPM_P2
2023/02/14 00:01:34;;;;;;;22.33;11.77;;;;;;;4.01;100.00;102836.00;5002369;28;20073;-77
2023/02/14 00:04:00;;;;;;;18.85;10.90;;;;;;;4.00;100.00;102866.88;5001637;28;20034;-77
2023/02/14 00:06:26;;;;;;;19.60;11.15;;;;;;;4.01;100.00;102894.16;5021670;28;20390;-74
2023/02/14 00:08:53;;;;;;;19.27;9.45;;;;;;;4.00;100.00;102916.22;5002708;28;20065;-73
2023/02/14 00:11:19;;;;;;;20.02;9.90;;;;;;;3.94;100.00;102919.13;5021811;28;20040;-74
2023/02/14 00:16:30;;;;;;;17.97;9.07;;;;;;;3.90;100.00;102933.41;5020948;28;20052;-79
2023/02/14 00:19:04;;;;;;;15.55;9.63;;;;;;;3.89;100.00;102921.97;5007989;28;20312;-75
2023/02/14 00:21:34;;;;;;;21.88;10.98;;;;;;;3.90;100.00;102939.53;5019383;28;20586;-76
2023/02/14 00:24:00;;;;;;;19.10;11.30;;;;;;;3.83;100.00;102906.38;4975220;28;20083;-77
2023/02/14 00:26:25;;;;;;;28.02;12.52;;;;;;;3.76;100.00;102823.88;4998946;28;20017;-75
2023/02/14 00:28:51;;;;;;;23.67;13.10;;;;;;;3.75;100.00;102764.03;4974450;28;20049;-73
2023/02/14 00:31:16;;;;;;;23.27;12.17;;;;;;;3.80;100.00;102738.25;5020206;28;20041;-74
2023/02/14 00:33:41;;;;;;;24.33;12.20;;;;;;;3.88;100.00;102719.41;5000417;28;20038;-74
2023/02/14 00:36:09;;;;;;;21.53;11.50;;;;;;;3.87;100.00;102670.13;5003902;28;20334;-73
2023/02/14 00:38:34;;;;;;;19.10;11.45;;;;;;;3.88;100.00;102655.97;5015635;28;20043;-78
2023/02/14 00:41:00;;;;;;;20.93;10.37;;;;;;;3.92;100.00;102640.84;5018899;28;20037;-78
2023/02/14 00:43:26;;;;;;;19.10;10.82;;;;;;;3.91;100.00;102617.97;5003658;28;20280;-75
2023/02/14 00:45:52;;;;;;;23.25;12.73;;;;;;;3.89;100.00;102602.22;4991114;28;20161;-75
2023/02/14 00:48:17;;;;;;;24.23;11.73;;;;;;;3.89;100.00;102594.28;5020470;28;20029;-75
2023/02/14 00:50:45;;;;;;;22.43;11.33;;;;;;;3.93;100.00;102616.13;5002461;28;20042;-73
2023/02/14 00:53:11;;;;;;;25.33;11.88;;;;;;;3.78;100.00;102608.00;5003608;28;20319;-74
2023/02/14 00:55:36;;;;;;;17.70;9.80;;;;;;;3.87;100.00;102637.56;5001284;28;20489;-75
2023/02/14 00:58:01;;;;;;;21.40;11.25;;;;;;;3.86;100.00;102641.13;4991777;28;20631;-73
2023/02/14 01:00:27;;;;;;;21.00;10.77;;;;;;;3.83;100.00;102604.28;5002745;28;20408;-73
2023/02/14 01:02:54;;;;;;;24.33;12.55;;;;;;;3.80;100.00;102558.59;4991858;28;20033;-73
2023/02/14 01:05:19;;;;;;;21.45;11.93;;;;;;;3.95;100.00;102509.41;5021244;28;20115;-75
2023/02/14 01:07:44;;;;;;;25.03;12.80;;;;;;;3.98;100.00;102437.03;5001199;28;20037;-78
2023/02/14 01:10:10;;;;;;;23.30;10.73;;;;;;;3.98;100.00;102394.75;5003627;28;20383;-74
2023/02/14 01:12:36;;;;;;;21.63;11.68;;;;;;;3.99;100.00;102372.69;5012878;28;20276;-73
2023/02/14 01:15:01;;;;;;;19.33;11.87;;;;;;;4.01;100.00;102384.03;5019106;28;20485;-74
2023/02/14 01:17:27;;;;;;;23.03;12.93;;;;;;;3.87;100.00;102323.13;5020105;28;20087;-75
2023/02/14 01:19:52;;;;;;;19.50;11.70;;;;;;;3.92;100.00;102332.50;4989994;28;20529;-74
2023/02/14 01:22:18;;;;;;;19.88;11.57;;;;;;;3.98;100.00;102360.41;5003920;28;20284;-73
2023/02/14 01:24:43;;;;;;;21.63;11.53;;;;;;;3.90;100.00;102315.03;4984423;28;20540;-75
2023/02/14 01:27:09;;;;;;;25.93;12.50;;;;;;;3.83;100.00;102311.84;4999160;28;20495;-73
2023/02/14 01:29:34;;;;;;;23.92;12.35;;;;;;;3.84;100.00;102336.47;5017701;28;20347;-77
2023/02/14 01:32:00;;;;;;;22.50;12.40;;;;;;;3.83;100.00;102338.28;5018825;28;20068;-78
2023/02/14 01:34:25;;;;;;;26.23;13.95;;;;;;;3.82;100.00;102355.06;5002432;28;20048;-77
2023/02/14 01:36:51;;;;;;;23.27;13.57;;;;;;;3.81;100.00;102348.91;4989199;28;20037;-73
2023/02/14 01:39:17;;;;;;;22.30;11.93;;;;;;;3.81;100.00;102366.56;5003165;28;20096;-73
2023/02/14 01:41:47;;;;;;;21.50;11.93;;;;;;;3.78;100.00;102364.94;4999934;28;20034;-75
2023/02/14 01:44:14;;;;;;;21.45;12.52;;;;;;;3.80;100.00;102393.94;5003341;28;20057;-78
2023/02/14 01:46:41;;;;;;;22.60;12.80;;;;;;;3.86;100.00;102419.16;5017354;28;20106;-77
2023/02/14 01:49:21;;;;;;;22.55;12.45;;;;;;;3.84;100.00;102455.38;5019553;28;20029;-74
2023/02/14 01:51:57;;;;;;;22.33;13.00;;;;;;;3.78;100.00;102457.41;4998956;28;20395;-76
2023/02/14 01:54:26;;;;;;;24.80;14.13;;;;;;;3.74;100.00;102426.78;5002548;28;20114;-73
2023/02/14 01:56:57;;;;;;;27.33;13.25;;;;;;;3.63;100.00;102386.88;4988968;28;20026;-74
2023/02/14 01:59:25;;;;;;;22.25;13.30;;;;;;;3.55;100.00;102346.78;5002450;28;20069;-76
2023/02/14 02:01:52;;;;;;;25.17;14.05;;;;;;;3.50;100.00;102330.31;4988727;28;20030;-73
2023/02/14 02:04:28;;;;;;;28.17;15.65;;;;;;;3.58;100.00;102325.47;4997415;28;20034;-73
2023/02/14 02:06:59;;;;;;;28.00;15.27;;;;;;;3.60;100.00;102318.34;4989766;28;20538;-75
2023/02/14 02:09:41;;;;;;;26.92;14.80;;;;;;;3.66;100.00;102325.09;5001579;28;20414;-76
2023/02/14 02:12:06;;;;;;;24.05;12.57;;;;;;;3.73;100.00;102321.22;5009926;28;20116;-76
2023/02/14 02:14:32;;;;;;;24.23;13.90;;;;;;;3.69;100.00;102317.84;5001426;28;20144;-73
2023/02/14 02:17:19;;;;;;;26.75;14.18;;;;;;;3.59;100.00;102325.41;5017428;28;20289;-73
2023/02/14 02:20:03;;;;;;;24.67;13.32;;;;;;;3.61;100.00;102325.34;4989630;28;20045;-74
2023/02/14 02:23:11;;;;;;;25.05;14.63;;;;;;;3.66;100.00;102349.72;5006664;28;20057;-76
2023/02/14 02:26:39;;;;;;;29.92;15.27;;;;;;;3.57;100.00;102265.69;4999684;28;20091;-75
2023/02/14 02:29:32;;;;;;;27.92;15.18;;;;;;;3.58;100.00;102247.13;4877481;29;20052;-74
2023/02/14 02:32:06;;;;;;;32.53;16.50;;;;;;;3.66;100.00;102248.50;4926399;29;20031;-77
2023/02/14 02:34:57;;;;;;;35.60;16.85;;;;;;;3.64;100.00;102201.03;4929981;29;20544;-74
2023/02/14 02:37:44;;;;;;;31.02;17.75;;;;;;;3.63;100.00;102190.53;4943920;29;20035;-74
2023/02/14 02:40:43;;;;;;;37.17;20.63;;;;;;;3.50;100.00;102158.66;4923946;29;20054;-73
2023/02/14 02:43:27;;;;;;;34.58;19.35;;;;;;;3.51;100.00;102207.88;4943650;29;20065;-73
2023/02/14 02:49:11;;;;;;;;;;;;;;;3.45;100.00;102224.91;4943600;29;20134;-73
2023/02/14 02:54:51;;;;;;;38.20;20.80;;;;;;;3.45;100.00;102255.75;4942555;29;20114;-73
2023/02/14 02:57:25;;;;;;;38.17;20.77;;;;;;;3.40;100.00;102249.88;4943620;28;20062;-76
2023/02/14 02:59:54;;;;;;;36.65;20.40;;;;;;;3.37;100.00;102259.66;4943160;29;20294;-73
2023/02/14 03:02:29;;;;;;;39.70;21.60;;;;;;;3.45;100.00;102288.28;4930077;29;20512;-75
2023/02/14 03:04:59;;;;;;;37.42;21.05;;;;;;;3.44;100.00;102277.78;4950936;28;20035;-78
2023/02/14 03:07:33;;;;;;;40.38;22.35;;;;;;;3.35;100.00;102258.88;4989987;28;20030;-77
2023/02/14 03:10:29;;;;;;;42.90;23.08;;;;;;;3.30;100.00;102276.75;5015989;28;20061;-76
2023/02/14 03:13:32;;;;;;;41.25;23.40;;;;;;;3.25;100.00;102318.31;4993857;28;20037;-78
2023/02/14 03:16:18;;;;;;;40.47;21.50;;;;;;;3.36;100.00;102382.00;4988905;28;20034;-73
2023/02/14 03:18:57;;;;;;;42.63;23.70;;;;;;;3.28;100.00;102330.53;4993594;28;20046;-74
2023/02/14 03:21:41;;;;;;;42.63;22.38;;;;;;;3.29;100.00;102319.88;5003775;28;20045;-76
2023/02/14 03:24:36;;;;;;;44.45;23.65;;;;;;;3.32;100.00;102303.88;4988739;28;20092;-77
2023/02/14 03:27:34;;;;;;;46.78;24.92;;;;;;;3.24;100.00;102284.94;4989196;28;20033;-73
2023/02/14 03:30:10;;;;;;;50.45;25.45;;;;;;;3.10;100.00;102263.69;5014729;28;20092;-78
2023/02/14 03:33:02;;;;;;;50.40;23.73;;;;;;;3.12;100.00;102326.00;5004209;28;20033;-73
2023/02/14 03:35:36;;;;;;;44.03;25.63;;;;;;;3.07;100.00;102319.25;4986495;28;20041;-74
2023/02/14 03:38:20;;;;;;;46.03;25.23;;;;;;;3.15;100.00;102349.59;4992068;28;20036;-73
2023/02/14 03:40:53;;;;;;;48.78;27.20;;;;;;;3.24;100.00;102337.75;5000844;28;20101;-73
2023/02/14 03:43:41;;;;;;;46.55;25.60;;;;;;;3.32;100.00;102351.41;5003892;28;20688;-74
2023/02/14 03:46:12;;;;;;;48.92;26.65;;;;;;;3.26;100.00;102304.22;5011557;28;20033;-74
2023/02/14 03:48:40;;;;;;;45.88;24.52;;;;;;;3.23;100.00;102283.25;5019291;28;20120;-74
2023/02/14 03:51:09;;;;;;;46.03;24.33;;;;;;;3.28;100.00;102297.06;4973454;28;1075364;-74
2023/02/14 03:53:39;;;;;;;43.17;23.45;;;;;;;3.25;100.00;102260.25;5003190;28;20091;-77
2023/02/14 03:56:14;;;;;;;45.15;23.55;;;;;;;3.21;100.00;102221.78;5012124;28;20059;-78
2023/02/14 03:58:45;;;;;;;46.88;24.98;;;;;;;3.13;100.00;102211.59;4986493;28;20052;-76
2023/02/14 04:01:29;;;;;;;44.67;25.48;;;;;;;3.07;100.00;102200.50;5022474;28;20043;-73
2023/02/14 04:03:56;;;;;;;50.33;26.33;;;;;;;3.06;100.00;102212.84;5021264;28;20073;-77
2023/02/14 04:06:22;;;;;;;45.78;23.35;;;;;;;3.23;100.00;102234.88;5022267;28;20020;-74
2023/02/14 04:08:47;;;;;;;46.40;25.27;;;;;;;3.19;100.00;102209.59;5003333;28;20037;-73
2023/02/14 04:11:13;;;;;;;45.60;25.35;;;;;;;3.10;100.00;102171.31;5021856;28;20306;-73
2023/02/14 04:13:38;;;;;;;48.08;24.80;;;;;;;2.99;100.00;102165.72;4986133;28;20336;-73
2023/02/14 04:16:04;;;;;;;45.65;25.30;;;;;;;2.90;100.00;102160.00;5022105;28;20069;-77
2023/02/14 04:21:14;;;;;;;46.75;24.88;;;;;;;3.08;100.00;102252.34;5019061;28;20442;-74
2023/02/14 04:23:39;;;;;;;44.35;24.67;;;;;;;3.09;100.00;102260.19;5020127;28;20039;-77
2023/02/14 04:26:05;;;;;;;44.13;24.40;;;;;;;3.17;100.00;102265.94;5011625;28;20033;-78
2023/02/14 04:28:31;;;;;;;46.22;24.23;;;;;;;3.18;100.00;102256.22;5020839;28;20048;-74
2023/02/14 04:31:00;;;;;;;45.13;24.35;;;;;;;3.10;100.00;102234.66;5014904;28;20510;-74
2023/02/14 04:33:25;;;;;;;40.85;22.67;;;;;;;3.11;100.00;102246.91;5019765;28;20532;-74
2023/02/14 04:35:51;;;;;;;48.40;24.80;;;;;;;3.10;100.00;102232.00;5019926;28;20042;-76
2023/02/14 04:38:16;;;;;;;44.30;23.50;;;;;;;3.06;100.00;102219.91;5022058;28;20272;-73
2023/02/14 04:40:41;;;;;;;42.60;23.23;;;;;;;3.12;100.00;102216.97;5018266;28;20512;-73
2023/02/14 04:43:07;;;;;;;47.07;24.33;;;;;;;3.04;100.00;102214.69;5003844;28;20091;-73
2023/02/14 04:45:32;;;;;;;44.40;22.70;;;;;;;2.88;100.00;102217.28;5003419;28;20037;-75
2023/02/14 04:47:58;;;;;;;45.43;24.47;;;;;;;2.96;100.00;102244.09;5021067;28;20064;-73
2023/02/14 04:50:24;;;;;;;47.35;23.77;;;;;;;2.99;100.00;102248.38;4987064;28;20041;-75
2023/02/14 04:52:50;;;;;;;47.65;24.63;;;;;;;3.02;100.00;102215.69;5019574;28;20172;-74
2023/02/14 04:55:16;;;;;;;48.17;25.77;;;;;;;2.97;100.00;102194.81;5003312;28;20048;-72
2023/02/14 04:57:41;;;;;;;45.22;24.05;;;;;;;3.00;100.00;102207.88;5001268;28;20025;-74
2023/02/14 05:00:07;;;;;;;45.03;23.03;;;;;;;3.01;100.00;102216.66;5021221;28;20056;-76
2023/02/14 05:02:33;;;;;;;44.38;22.55;;;;;;;3.11;100.00;102225.78;5019362;28;20287;-73
2023/02/14 05:04:58;;;;;;;45.67;22.53;;;;;;;3.01;100.00;102187.63;5014249;28;20509;-73
2023/02/14 05:07:24;;;;;;;43.63;22.77;;;;;;;2.87;100.00;102161.94;5019874;28;20399;-73
2023/02/14 05:09:49;;;;;;;41.83;22.27;;;;;;;2.69;100.00;102124.16;5006078;28;20069;-73
2023/02/14 05:12:15;;;;;;;44.93;23.57;;;;;;;2.69;100.00;102158.44;5004028;28;20041;-74
2023/02/14 05:14:41;;;;;;;44.45;22.48;;;;;;;2.74;100.00;102182.81;5000502;28;20414;-73
2023/02/14 05:17:06;;;;;;;42.70;22.92;;;;;;;2.71;100.00;102196.13;4987301;28;20045;-74
2023/02/14 05:19:32;;;;;;;43.33;22.63;;;;;;;2.71;100.00;102209.31;5001454;28;20179;-73
2023/02/14 05:21:57;;;;;;;47.15;23.80;;;;;;;2.67;100.00;102216.56;5018178;28;20026;-73
2023/02/14 05:24:23;;;;;;;42.83;23.37;;;;;;;2.68;100.00;102259.59;5018182;28;20041;-73
2023/02/14 05:26:48;;;;;;;50.88;24.98;;;;;;;2.60;100.00;102281.06;4989569;28;20247;-73
2023/02/14 05:29:13;;;;;;;43.00;21.63;;;;;;;2.57;100.00;102318.09;5015098;28;20034;-73
2023/02/14 05:31:39;;;;;;;38.05;19.67;;;;;;;2.57;100.00;102314.63;5019508;28;20037;-73
2023/02/14 05:34:04;;;;;;;39.97;20.23;;;;;;;2.69;100.00;102314.03;5020721;28;20556;-73
2023/02/14 05:36:30;;;;;;;38.97;21.47;;;;;;;2.71;100.00;102280.53;5001396;28;20437;-73
2023/02/14 05:38:55;;;;;;;41.88;20.15;;;;;;;2.70;100.00;102274.41;4973121;28;20334;-73
2023/02/14 05:41:20;;;;;;;46.45;21.83;;;;;;;2.61;100.00;102276.63;5000186;28;20041;-73
2023/02/14 05:43:46;;;;;;;42.95;20.17;;;;;;;2.64;100.00;102310.78;5002594;28;20037;-73
2023/02/14 05:46:11;;;;;;;39.83;18.53;;;;;;;2.54;100.00;102290.09;5003928;28;20537;-73
2023/02/14 05:48:37;;;;;;;38.95;18.92;;;;;;;2.60;100.00;102339.09;5003666;28;20034;-73
2023/02/14 05:51:08;;;;;;;41.40;19.27;;;;;;;2.56;100.00;102363.03;5020936;28;20098;-73
2023/02/14 05:53:34;;;;;;;44.85;18.42;;;;;;;2.50;100.00;102375.53;5016095;28;20037;-73
2023/02/14 05:56:00;;;;;;;38.88;19.30;;;;;;;2.60;100.00;102397.09;5005890;28;20053;-73
2023/02/14 05:58:25;;;;;;;50.20;20.33;;;;;;;2.46;100.00;102360.81;5006309;28;20030;-74
2023/02/14 06:00:51;;;;;;;41.30;19.05;;;;;;;2.49;100.00;102360.66;5020168;28;20037;-73
2023/02/14 06:03:16;;;;;;;46.60;19.98;;;;;;;2.38;100.00;102310.22;5022454;28;20087;-73
2023/02/14 06:05:42;;;;;;;38.00;19.43;;;;;;;2.38;100.00;102314.63;4990542;28;20411;-73
2023/02/14 06:08:07;;;;;;;42.40;21.20;;;;;;;2.42;100.00;102329.38;5013551;28;20288;-74
2023/02/14 06:10:33;;;;;;;40.92;18.88;;;;;;;2.43;100.00;102345.13;5005648;28;20456;-72
2023/02/14 06:12:58;;;;;;;44.43;19.57;;;;;;;2.44;100.00;102352.13;5005251;28;20089;-74
2023/02/14 06:15:24;;;;;;;44.03;21.43;;;;;;;2.41;100.00;102351.38;5006217;28;20045;-74
2023/02/14 06:17:54;;;;;;;39.70;19.55;;;;;;;2.42;100.00;102367.13;5012089;28;20331;-78
2023/02/14 06:20:21;;;;;;;40.10;19.35;;;;;;;2.39;100.00;102385.75;5005780;28;20041;-76
2023/02/14 06:22:47;;;;;;;39.58;19.23;;;;;;;2.48;100.00;102426.63;5015207;28;20025;-73
2023/02/14 06:25:12;;;;;;;43.53;19.75;;;;;;;2.38;100.00;102399.84;5023507;28;20039;-74
2023/02/14 06:27:38;;;;;;;43.50;19.65;;;;;;;2.36;100.00;102390.28;5008659;28;20037;-72
2023/02/14 06:30:04;;;;;;;46.80;20.33;;;;;;;2.39;100.00;102401.56;5005023;28;20108;-73
2023/02/14 06:32:30;;;;;;;43.00;19.10;;;;;;;2.48;100.00;102419.59;5002541;28;20033;-74
2023/02/14 06:34:55;;;;;;;49.17;21.70;;;;;;;2.53;100.00;102411.47;5004857;28;20411;-73
2023/02/14 06:37:20;;;;;;;43.65;21.77;;;;;;;2.59;100.00;102407.69;4988392;28;20464;-74
2023/02/14 06:39:46;;;;;;;40.17;18.20;;;;;;;2.43;100.00;102349.53;5004593;28;20050;-75
2023/02/14 06:42:11;;;;;;;41.37;20.13;;;;;;;2.41;100.00;102369.84;5003884;28;20113;-73
2023/02/14 06:44:36;;;;;;;52.33;23.27;;;;;;;2.45;100.00;102387.22;5004731;28;20549;-73
2023/02/14 06:47:03;;;;;;;50.40;21.37;;;;;;;2.50;100.00;102409.81;5009053;28;20271;-73
2023/02/14 06:49:28;;;;;;;48.40;21.67;;;;;;;2.60;100.00;102406.75;5009410;28;20041;-74
2023/02/14 06:51:54;;;;;;;44.63;19.27;;;;;;;2.60;100.00;102406.75;4988064;28;20084;-74
2023/02/14 06:54:19;;;;;;;47.63;19.58;;;;;;;2.59;100.00;102421.72;5004845;28;20088;-77
2023/02/14 06:56:44;;;;;;;43.42;20.10;;;;;;;2.65;100.00;102429.38;4988569;28;20571;-75
2023/02/14 06:59:10;;;;;;;45.80;20.63;;;;;;;2.46;100.00;102397.72;5004747;28;20571;-73
2023/02/14 07:01:35;;;;;;;50.23;22.63;;;;;;;2.42;100.00;102390.03;4993481;28;20458;-73
2023/02/14 07:04:00;;;;;;;42.07;19.90;;;;;;;2.41;100.00;102389.16;5004893;28;20288;-73
2023/02/14 07:06:26;;;;;;;54.07;20.87;;;;;;;2.49;100.00;102423.94;5004784;28;20040;-73
2023/02/14 07:08:51;;;;;;;50.03;21.90;;;;;;;2.51;100.00;102416.81;5004689;28;20285;-74
2023/02/14 07:11:16;;;;;;;47.17;23.33;;;;;;;2.38;100.00;102397.19;5009705;28;20104;-73
2023/02/14 07:13:42;;;;;;;46.53;21.00;;;;;;;2.45;100.00;102426.78;5014576;28;20658;-73
2023/02/14 07:16:08;;;;;;;47.80;21.00;;;;;;;2.50;100.00;102435.34;5005723;28;20030;-74
2023/02/14 07:18:34;;;;;;;48.65;19.80;;;;;;;2.67;100.00;102460.94;4988373;28;20026;-76
2023/02/14 07:20:59;;;;;;;47.17;20.30;;;;;;;2.70;100.00;102440.56;5005885;28;20509;-77
2023/02/14 07:23:24;;;;;;;53.17;23.67;;;;;;;2.62;100.00;102403.16;5004557;28;20029;-74
2023/02/14 07:25:50;;;;;;;54.60;22.17;;;;;;;2.64;100.00;102416.25;5004301;28;20046;-76
2023/02/14 07:28:15;;;;;;;54.53;23.87;;;;;;;2.77;100.00;102449.06;5004603;28;20113;-73
2023/02/14 07:30:40;;;;;;;56.27;23.77;;;;;;;2.81;100.00;102447.13;5011320;28;20061;-73
2023/02/14 07:33:06;;;;;;;57.40;23.80;;;;;;;2.86;100.00;102451.28;5001686;28;20631;-73
2023/02/14 07:35:31;;;;;;;54.73;23.07;;;;;;;2.89;100.00;102460.81;5004364;28;20030;-73
2023/02/14 07:37:57;;;;;;;46.38;21.95;;;;;;;2.91;100.00;102467.75;4988217;28;20133;-73
2023/02/14 07:40:24;;;;;;;50.13;21.90;;;;;;;2.91;100.00;102449.28;4998699;28;20045;-74
2023/02/14 07:42:53;;;;;;;53.65;22.70;;;;;;;2.97;100.00;102440.22;5017595;28;20125;-76
2023/02/14 07:45:19;;;;;;;55.60;23.38;;;;;;;2.94;100.00;102420.09;5014541;28;20676;-75
2023/02/14 07:47:46;;;;;;;55.58;23.83;;;;;;;2.77;100.00;102372.56;5010956;28;20036;-74
2023/02/14 07:50:12;;;;;;;56.38;24.38;;;;;;;2.85;100.00;102417.88;5006674;28;20120;-73
2023/02/14 07:52:37;;;;;;;60.00;26.30;;;;;;;2.79;100.00;102386.53;4987732;28;20116;-73
2023/02/14 07:55:03;;;;;;;62.90;27.50;;;;;;;2.71;100.00;102376.31;5021404;28;20073;-73
2023/02/14 07:57:28;;;;;;;60.78;24.70;;;;;;;2.65;100.00;102374.00;5004121;28;20300;-75
2023/02/14 07:59:53;;;;;;;57.03;25.90;;;;;;;2.81;100.00;102442.72;5021506;28;20390;-76
2023/02/14 08:02:19;;;;;;;55.37;24.97;;;;;;;2.94;100.00;102467.59;5022618;28;20083;-77
2023/02/14 08:04:45;;;;;;;57.78;23.77;;;;;;;3.04;100.00;102462.75;5019249;28;20342;-73
2023/02/14 08:07:10;;;;;;;61.97;26.23;;;;;;;3.13;100.00;102493.97;5005069;28;20033;-73
2023/02/14 08:09:35;;;;;;;64.37;26.93;;;;;;;3.02;100.00;102425.03;5004324;28;20079;-74
2023/02/14 08:14:45;;;;;;;59.67;25.42;;;;;;;2.97;100.00;102371.59;5020349;28;20060;-74
2023/02/14 08:17:12;;;;;;;61.28;25.08;;;;;;;3.08;100.00;102408.03;5022406;28;20041;-73
2023/02/14 08:19:38;;;;;;;57.85;24.33;;;;;;;2.93;100.00;102375.34;5004432;28;20041;-74
2023/02/14 08:22:04;;;;;;;53.83;24.17;;;;;;;2.95;100.00;102395.44;5008450;28;20057;-76
2023/02/14 08:24:29;;;;;;;59.42;22.38;;;;;;;3.04;100.00;102424.94;5008445;28;20038;-75
2023/02/14 08:26:56;;;;;;;57.75;23.92;;;;;;;3.19;100.00;102455.06;5014473;28;20038;-73
2023/02/14 08:29:22;;;;;;;53.53;24.20;;;;;;;3.30;100.00;102472.09;5004325;28;20401;-74
2023/02/14 08:31:48;;;;;;;53.88;23.45;;;;;;;3.43;100.00;102489.97;4989763;28;20034;-72
2023/02/14 08:34:14;;;;;;;54.80;23.38;;;;;;;3.37;100.00;102444.47;5006998;28;20513;-72
2023/02/14 08:36:40;;;;;;;;;;;;;;;3.11;100.00;102352.47;5008320;28;20033;-74
2023/02/14 08:39:06;;;;;;;56.97;23.25;;;;;;;3.23;100.00;102382.69;4990539;28;19928;-73
2023/02/14 08:41:32;;;;;;;49.58;23.73;;;;;;;3.12;100.00;102348.91;5007989;28;20068;-73
2023/02/14 08:43:58;;;;;;;57.35;23.60;;;;;;;3.27;100.00;102393.03;5019813;28;20041;-74
2023/02/14 08:46:23;;;;;;;57.75;24.27;;;;;;;3.42;100.00;102407.28;5001156;28;20048;-73
2023/02/14 08:48:49;;;;;;;48.53;22.10;;;;;;;3.46;100.00;102368.34;5002153;28;20585;-73
2023/02/14 08:51:15;;;;;;;55.83;22.55;;;;;;;3.55;100.00;102349.41;5021722;28;20441;-76
2023/02/14 08:53:41;;;;;;;46.83;22.25;;;;;;;3.70;100.00;102360.97;5018640;28;20073;-73
2023/02/14 08:56:10;;;;;;;52.65;22.98;;;;;;;3.86;100.00;102376.91;5002972;28;20043;-75
2023/02/14 08:58:35;;;;;;;58.35;25.50;;;;;;;3.95;100.00;102361.41;5020256;28;20450;-73
2023/02/14 09:01:06;;;;;;;55.08;24.60;;;;;;;3.99;100.00;102314.56;5021086;28;20039;-73
2023/02/14 09:03:32;;;;;;;56.13;22.77;;;;;;;3.98;100.00;102284.63;5004159;28;20084;-73
2023/02/14 09:06:02;;;;;;;50.15;22.23;;;;;;;3.88;100.00;102211.22;5007650;28;20109;-75
2023/02/14 09:08:28;;;;;;;53.65;24.30;;;;;;;3.48;100.00;102123.56;5004568;28;20052;-74
2023/02/14 09:10:53;;;;;;;52.92;23.55;;;;;;;3.64;100.00;102224.81;5019778;28;20586;-75
2023/02/14 09:13:19;;;;;;;55.67;25.17;;;;;;;3.88;100.00;102275.47;5003959;28;20041;-77
2023/02/14 09:15:44;;;;;;;62.37;26.87;;;;;;;4.01;100.00;102279.19;5018927;28;20056;-75
2023/02/14 09:18:10;;;;;;;61.33;27.63;;;;;;;4.15;100.00;102257.28;5015692;28;20108;-75
2023/02/14 09:20:35;;;;;;;56.00;25.77;;;;;;;4.26;100.00;102242.63;5002083;28;20041;-74
2023/02/14 09:23:00;;;;;;;58.63;25.70;;;;;;;3.94;100.00;102097.25;5021113;28;20041;-73
2023/02/14 09:25:26;;;;;;;57.10;24.30;;;;;;;4.20;100.00;102193.59;5020695;28;20124;-76
2023/02/14 09:27:51;;;;;;;55.40;23.90;;;;;;;4.20;100.00;102165.34;5001939;28;20037;-74
2023/02/14 09:30:16;;;;;;;59.53;25.07;;;;;;;4.12;100.00;102092.69;5020169;28;20091;-73
2023/02/14 09:32:42;;;;;;;54.88;24.55;;;;;;;4.28;100.00;102114.69;5018638;28;20087;-76
2023/02/14 09:35:08;;;;;;;59.67;25.60;;;;;;;4.38;100.00;102104.44;5020158;28;20523;-76
2023/02/14 09:37:33;;;;;;;51.70;24.05;;;;;;;4.47;100.00;102097.75;5003074;28;20037;-77
2023/02/14 09:39:59;;;;;;;51.87;25.10;;;;;;;4.44;100.00;102056.47;5020381;28;20041;-78
2023/02/14 09:43:09;;;;;;;57.50;25.53;;;;;;;4.55;100.00;102092.88;5020685;28;20091;-78
2023/02/14 09:45:35;;;;;;;51.10;24.30;;;;;;;4.30;100.00;102011.50;5018541;28;20044;-74
2023/02/14 09:48:08;;;;;;;55.70;25.58;;;;;;;4.12;100.00;102003.72;5019394;28;20037;-74
2023/02/14 09:50:51;;;;;;;55.60;24.85;;;;;;;4.43;100.00;102145.53;5001289;28;20045;-77
2023/02/14 09:53:33;;;;;;;50.83;23.73;;;;;;;4.46;100.00;102083.69;5012272;28;20156;-73
2023/02/14 09:56:19;;;;;;;50.78;25.40;;;;;;;4.69;100.00;102129.09;5014569;28;20046;-77
2023/02/14 09:58:52;;;;;;;58.45;24.52;;;;;;;4.84;100.00;102054.91;5000796;28;20124;-76
2023/02/14 10:01:40;;;;;;;48.97;23.23;;;;;;;4.96;100.00;101979.22;5020708;28;20128;-74
2023/02/14 10:04:15;;;;;;;51.05;25.10;;;;;;;4.96;100.00;101938.66;4982385;28;20088;-74
2023/02/14 10:06:53;;;;;;;51.55;24.42;;;;;;;4.64;100.00;101841.03;4989930;28;20034;-73
2023/02/14 10:09:34;;;;;;;57.60;26.30;;;;;;;4.69;100.00;101920.09;5020398;28;20041;-78
2023/02/14 10:12:00;;;;;;;56.33;23.92;;;;;;;4.92;100.00;102016.59;5015068;28;20115;-75
2023/02/14 10:14:28;;;;;;;;;;;;;;;5.01;100.00;102023.91;4986787;28;20137;-75
2023/02/14 10:17:29;;;;;;;51.65;25.10;;;;;;;5.07;100.00;102032.34;4989379;28;19983;-77
2023/02/14 10:20:05;;;;;;;55.03;26.02;;;;;;;5.32;100.00;102089.09;4971388;28;20112;-75
2023/02/14 10:22:41;;;;;;;55.28;23.83;;;;;;;5.36;100.00;101971.41;5001370;28;20044;-77
2023/02/14 10:25:19;;;;;;;54.17;24.27;;;;;;;5.29;100.00;101910.06;4992705;28;20047;-74
2023/02/14 10:27:45;;;;;;;49.95;23.60;;;;;;;5.10;100.00;101808.94;5016705;28;20116;-73
2023/02/14 10:30:16;;;;;;;54.95;27.23;;;;;;;5.18;100.00;101841.06;5020091;28;20136;-73
2023/02/14 10:33:02;;;;;;;67.03;28.75;;;;;;;5.28;100.00;101891.59;5000012;28;20060;-74
2023/02/14 10:35:33;;;;;;;;;;;;;;;5.55;100.00;101949.00;5002370;28;20068;-73
2023/02/14 10:38:41;;;;;;;56.47;24.65;;;;;;;5.61;100.00;101906.22;4989726;28;19991;-78
2023/02/14 10:41:17;;;;;;;62.25;25.33;;;;;;;5.61;100.00;101847.94;4981684;28;20088;-75
2023/02/14 10:43:56;;;;;;;57.38;25.00;;;;;;;5.61;100.00;101805.56;4989119;28;20052;-74
2023/02/14 10:46:25;;;;;;;53.97;27.20;;;;;;;5.61;100.00;101794.97;5020129;28;20044;-75
2023/02/14 10:49:09;;;;;;;48.63;23.17;;;;;;;5.54;100.00;101772.50;4989318;28;20033;-73
2023/02/14 10:51:47;;;;;;;51.60;24.20;;;;;;;5.61;100.00;101779.06;5000482;28;20048;-73
2023/02/14 10:54:20;;;;;;;49.28;24.00;;;;;;;5.35;100.00;101701.38;4982695;28;20536;-73
2023/02/14 10:56:59;;;;;;;49.95;25.17;;;;;;;5.24;100.00;101758.59;4988789;28;20435;-73
2023/02/14 10:59:30;;;;;;;59.28;26.13;;;;;;;5.32;100.00;101818.97;5001897;28;20036;-75
2023/02/14 11:01:58;;;;;;;61.17;27.27;;;;;;;5.31;100.00;101853.47;4995576;28;20034;-73
2023/02/14 11:04:24;;;;;;;59.05;27.00;;;;;;;5.59;100.00;101903.66;5020138;28;20134;-77
2023/02/14 11:06:51;;;;;;;60.47;28.40;;;;;;;5.66;100.00;101878.47;5017593;28;20103;-73
2023/02/14 11:09:17;;;;;;;56.85;24.92;;;;;;;5.56;100.00;101866.78;5018733;28;20072;-75
2023/02/14 11:11:46;;;;;;;58.00;27.48;;;;;;;5.63;100.00;101936.13;4999583;28;20034;-74
2023/02/14 11:14:35;;;;;;;65.53;31.95;;;;;;;5.63;100.00;101893.72;4985690;28;20034;-74
2023/02/14 11:17:26;;;;;;;60.22;27.48;;;;;;;5.15;100.00;101851.84;4989267;28;20389;-75
2023/02/14 11:20:26;;;;;;;58.75;25.77;;;;;;;5.04;100.00;101990.19;5016187;28;20038;-73
2023/02/14 11:22:52;;;;;;;61.80;25.95;;;;;;;5.41;100.00;102087.66;5001726;28;20065;-74
2023/02/14 11:25:21;;;;;;;56.67;25.35;;;;;;;5.54;100.00;102030.28;5022306;28;20510;-75
2023/02/14 11:27:49;;;;;;;53.63;23.52;;;;;;;5.49;100.00;101956.41;5003489;28;20505;-73
2023/02/14 11:30:28;;;;;;;51.03;24.92;;;;;;;5.56;100.00;102054.88;5023587;28;20039;-74
2023/02/14 11:32:55;;;;;;;55.65;27.00;;;;;;;5.34;100.00;101986.56;5021397;28;20045;-77
2023/02/14 11:35:29;;;;;;;66.50;25.63;;;;;;;5.46;100.00;102088.22;5021763;28;20045;-73
2023/02/14 11:37:56;;;;;;;55.53;23.98;;;;;;;5.20;100.00;102007.78;4992576;28;20038;-75